sensor_id;sensor_type;location;lat;lon;timestamp;temperature;humidity
37642;DHT22;23486;51.956;5.888;2022-10-30T00:02:11;14.30;99.90
37642;DHT22;23486;51.956;5.888;2022-10-30T00:04:37;14.30;99.90
37642;DHT22;23486;51.956;5.888;2022-10-30T00:07:02;14.20;99.90
37642;DHT22;23486;51.956;5.888;2022-10-30T00:09:28;14.20;99.90
37642;DHT22;23486;51.956;5.888;2022-10-30T00:11:53;14.10;99.90
37642;DHT22;23486;51.956;5.888;2022-10-30T00:14:19;14.10;99.90
37642;DHT22;23486;51.956;5.888;2022-10-30T00:16:44;14.00;99.90
37642;DHT22;23486;51.956;5.888;2022-10-30T00:19:10;13.90;99.90
37642;DHT22;23486;51.956;5.888;2022-10-30T00:21:35;13.90;99.90
37642;DHT22;23486;51.956;5.888;2022-10-30T00:24:01;13.90;99.90
37642;DHT22;23486;51.956;5.888;2022-10-30T00:26:26;13.80;99.90
37642;DHT22;23486;51.956;5.888;2022-10-30T00:28:59;13.80;99.90
37642;DHT22;23486;51.956;5.888;2022-10-30T00:31:25;13.80;99.90
37642;DHT22;23486;51.956;5.888;2022-10-30T00:33:52;13.70;99.90
37642;DHT22;23486;51.956;5.888;2022-10-30T00:36:18;13.60;99.90
37642;DHT22;23486;51.956;5.888;2022-10-30T00:38:44;13.60;99.90
37642;DHT22;23486;51.956;5.888;2022-10-30T00:41:18;13.60;99.90
37642;DHT22;23486;51.956;5.888;2022-10-30T00:43:44;13.60;99.90
37642;DHT22;23486;51.956;5.888;2022-10-30T00:46:29;13.50;99.90
37642;DHT22;23486;51.956;5.888;2022-10-30T00:49:02;13.50;99.90
37642;DHT22;23486;51.956;5.888;2022-10-30T00:51:31;13.50;99.90
37642;DHT22;23486;51.956;5.888;2022-10-30T00:53:59;13.50;99.90
37642;DHT22;23486;51.956;5.888;2022-10-30T00:56:27;13.40;99.90
37642;DHT22;23486;51.956;5.888;2022-10-30T00:58:57;13.40;99.90
37642;DHT22;23486;51.956;5.888;2022-10-30T01:01:25;13.40;99.90
37642;DHT22;23486;51.956;5.888;2022-10-30T01:03:55;13.30;99.90
37642;DHT22;23486;51.956;5.888;2022-10-30T01:06:23;13.30;99.90
37642;DHT22;23486;51.956;5.888;2022-10-30T01:08:50;13.30;99.90
37642;DHT22;23486;51.956;5.888;2022-10-30T01:11:16;13.30;99.90
37642;DHT22;23486;51.956;5.888;2022-10-30T01:13:43;13.20;99.90
37642;DHT22;23486;51.956;5.888;2022-10-30T01:21:56;13.20;99.90
37642;DHT22;23486;51.956;5.888;2022-10-30T01:27:23;13.10;99.90
37642;DHT22;23486;51.956;5.888;2022-10-30T01:38:28;13.00;99.90
37642;DHT22;23486;51.956;5.888;2022-10-30T01:40:56;13.00;99.90
37642;DHT22;23486;51.956;5.888;2022-10-30T01:43:21;13.00;99.90
37642;DHT22;23486;51.956;5.888;2022-10-30T01:56:40;12.90;99.90
37642;DHT22;23486;51.956;5.888;2022-10-30T01:59:17;12.80;99.90
37642;DHT22;23486;51.956;5.888;2022-10-30T02:01:45;12.80;99.90
37642;DHT22;23486;51.956;5.888;2022-10-30T02:04:12;12.80;99.90
37642;DHT22;23486;51.956;5.888;2022-10-30T02:06:39;12.70;99.90
37642;DHT22;23486;51.956;5.888;2022-10-30T02:09:05;12.70;99.90
37642;DHT22;23486;51.956;5.888;2022-10-30T02:11:32;12.70;99.90
37642;DHT22;23486;51.956;5.888;2022-10-30T02:14:01;12.70;99.90
37642;DHT22;23486;51.956;5.888;2022-10-30T02:16:29;12.70;99.90
37642;DHT22;23486;51.956;5.888;2022-10-30T02:18:54;12.70;99.90
37642;DHT22;23486;51.956;5.888;2022-10-30T02:21:20;12.70;99.90
37642;DHT22;23486;51.956;5.888;2022-10-30T02:23:46;12.60;99.90
37642;DHT22;23486;51.956;5.888;2022-10-30T02:26:11;12.60;99.90
37642;DHT22;23486;51.956;5.888;2022-10-30T02:28:37;12.60;99.90
37642;DHT22;23486;51.956;5.888;2022-10-30T02:31:02;12.60;99.90
37642;DHT22;23486;51.956;5.888;2022-10-30T02:33:28;12.60;99.90
37642;DHT22;23486;51.956;5.888;2022-10-30T02:35:53;12.60;99.90
37642;DHT22;23486;51.956;5.888;2022-10-30T02:38:19;12.50;99.90
37642;DHT22;23486;51.956;5.888;2022-10-30T02:40:48;12.50;99.90
37642;DHT22;23486;51.956;5.888;2022-10-30T02:43:16;12.50;99.90
37642;DHT22;23486;51.956;5.888;2022-10-30T02:45:42;12.50;99.90
37642;DHT22;23486;51.956;5.888;2022-10-30T02:48:08;12.50;99.90
37642;DHT22;23486;51.956;5.888;2022-10-30T02:50:33;12.50;99.90
37642;DHT22;23486;51.956;5.888;2022-10-30T02:52:59;12.50;99.90
37642;DHT22;23486;51.956;5.888;2022-10-30T02:55:24;12.50;99.90
37642;DHT22;23486;51.956;5.888;2022-10-30T02:57:50;12.50;99.90
37642;DHT22;23486;51.956;5.888;2022-10-30T03:00:16;12.50;99.90
37642;DHT22;23486;51.956;5.888;2022-10-30T03:02:41;12.50;99.90
37642;DHT22;23486;51.956;5.888;2022-10-30T03:05:10;12.40;99.90
37642;DHT22;23486;51.956;5.888;2022-10-30T03:07:35;12.40;99.90
37642;DHT22;23486;51.956;5.888;2022-10-30T03:10:01;12.40;99.90
37642;DHT22;23486;51.956;5.888;2022-10-30T03:12:26;12.30;99.90
37642;DHT22;23486;51.956;5.888;2022-10-30T03:14:52;12.30;99.90
37642;DHT22;23486;51.956;5.888;2022-10-30T03:17:17;12.30;99.90
37642;DHT22;23486;51.956;5.888;2022-10-30T03:19:43;12.30;99.90
37642;DHT22;23486;51.956;5.888;2022-10-30T03:22:08;12.30;99.90
37642;DHT22;23486;51.956;5.888;2022-10-30T03:24:37;12.20;99.90
37642;DHT22;23486;51.956;5.888;2022-10-30T03:27:02;12.20;99.90
37642;DHT22;23486;51.956;5.888;2022-10-30T03:29:28;12.20;99.90
37642;DHT22;23486;51.956;5.888;2022-10-30T03:31:54;12.20;99.90
37642;DHT22;23486;51.956;5.888;2022-10-30T03:34:19;12.20;99.90
37642;DHT22;23486;51.956;5.888;2022-10-30T03:36:45;12.20;99.90
37642;DHT22;23486;51.956;5.888;2022-10-30T03:39:10;12.20;99.90
37642;DHT22;23486;51.956;5.888;2022-10-30T03:41:36;12.20;99.90
37642;DHT22;23486;51.956;5.888;2022-10-30T03:44:02;12.10;99.90
37642;DHT22;23486;51.956;5.888;2022-10-30T03:46:30;12.10;99.90
37642;DHT22;23486;51.956;5.888;2022-10-30T03:49:02;12.10;99.90
37642;DHT22;23486;51.956;5.888;2022-10-30T03:51:27;12.10;99.90
37642;DHT22;23486;51.956;5.888;2022-10-30T03:53:53;12.00;99.90
37642;DHT22;23486;51.956;5.888;2022-10-30T03:56:18;12.00;99.90
37642;DHT22;23486;51.956;5.888;2022-10-30T03:58:44;12.00;99.90
37642;DHT22;23486;51.956;5.888;2022-10-30T04:01:10;12.00;99.90
37642;DHT22;23486;51.956;5.888;2022-10-30T04:03:36;12.00;99.90
37642;DHT22;23486;51.956;5.888;2022-10-30T04:06:01;12.00;99.90
37642;DHT22;23486;51.956;5.888;2022-10-30T04:08:30;12.00;99.90
37642;DHT22;23486;51.956;5.888;2022-10-30T04:10:55;12.00;99.90
37642;DHT22;23486;51.956;5.888;2022-10-30T04:13:21;12.00;99.90
37642;DHT22;23486;51.956;5.888;2022-10-30T04:15:47;12.00;99.90
37642;DHT22;23486;51.956;5.888;2022-10-30T04:18:16;12.00;99.90
37642;DHT22;23486;51.956;5.888;2022-10-30T04:20:43;12.00;99.90
37642;DHT22;23486;51.956;5.888;2022-10-30T04:23:13;12.10;99.90
37642;DHT22;23486;51.956;5.888;2022-10-30T04:25:39;12.00;99.90
37642;DHT22;23486;51.956;5.888;2022-10-30T04:28:05;12.00;99.90
37642;DHT22;23486;51.956;5.888;2022-10-30T04:30:30;12.00;99.90
37642;DHT22;23486;51.956;5.888;2022-10-30T04:33:06;12.00;99.90
37642;DHT22;23486;51.956;5.888;2022-10-30T04:35:35;12.00;99.90
37642;DHT22;23486;51.956;5.888;2022-10-30T04:38:12;11.90;99.90
37642;DHT22;23486;51.956;5.888;2022-10-30T04:40:40;11.90;99.90
37642;DHT22;23486;51.956;5.888;2022-10-30T04:43:06;11.90;99.90
37642;DHT22;23486;51.956;5.888;2022-10-30T04:45:32;11.80;99.90
37642;DHT22;23486;51.956;5.888;2022-10-30T04:48:07;11.80;99.90
37642;DHT22;23486;51.956;5.888;2022-10-30T04:50:34;11.80;99.90
37642;DHT22;23486;51.956;5.888;2022-10-30T04:53:01;11.70;99.90
37642;DHT22;23486;51.956;5.888;2022-10-30T04:55:27;11.70;99.90
37642;DHT22;23486;51.956;5.888;2022-10-30T04:58:00;11.70;99.90
37642;DHT22;23486;51.956;5.888;2022-10-30T05:00:27;11.70;99.90
37642;DHT22;23486;51.956;5.888;2022-10-30T05:02:53;11.60;99.90
37642;DHT22;23486;51.956;5.888;2022-10-30T05:05:19;11.60;99.90
37642;DHT22;23486;51.956;5.888;2022-10-30T05:07:45;11.60;99.90
37642;DHT22;23486;51.956;5.888;2022-10-30T05:10:12;11.60;99.90
37642;DHT22;23486;51.956;5.888;2022-10-30T05:12:43;11.60;99.90
37642;DHT22;23486;51.956;5.888;2022-10-30T05:15:10;11.60;99.90
37642;DHT22;23486;51.956;5.888;2022-10-30T05:17:36;11.60;99.90
37642;DHT22;23486;51.956;5.888;2022-10-30T05:20:02;11.60;99.90
37642;DHT22;23486;51.956;5.888;2022-10-30T05:22:28;11.60;99.90
37642;DHT22;23486;51.956;5.888;2022-10-30T05:24:53;11.60;99.90
37642;DHT22;23486;51.956;5.888;2022-10-30T05:27:22;11.60;99.90
37642;DHT22;23486;51.956;5.888;2022-10-30T05:29:47;11.60;99.90
37642;DHT22;23486;51.956;5.888;2022-10-30T05:32:13;11.70;99.90
37642;DHT22;23486;51.956;5.888;2022-10-30T05:34:38;11.60;99.90
37642;DHT22;23486;51.956;5.888;2022-10-30T05:37:04;11.60;99.90
37642;DHT22;23486;51.956;5.888;2022-10-30T05:39:29;11.60;99.90
37642;DHT22;23486;51.956;5.888;2022-10-30T05:41:55;11.60;99.90
37642;DHT22;23486;51.956;5.888;2022-10-30T05:44:20;11.60;99.90
37642;DHT22;23486;51.956;5.888;2022-10-30T05:46:46;11.60;99.90
37642;DHT22;23486;51.956;5.888;2022-10-30T05:49:12;11.60;99.90
37642;DHT22;23486;51.956;5.888;2022-10-30T05:51:37;11.50;99.90
37642;DHT22;23486;51.956;5.888;2022-10-30T05:54:03;11.50;99.90
37642;DHT22;23486;51.956;5.888;2022-10-30T05:56:29;11.50;99.90
37642;DHT22;23486;51.956;5.888;2022-10-30T05:58:54;11.40;99.90
37642;DHT22;23486;51.956;5.888;2022-10-30T06:01:20;11.40;99.90
37642;DHT22;23486;51.956;5.888;2022-10-30T06:03:46;11.40;99.90
37642;DHT22;23486;51.956;5.888;2022-10-30T06:06:11;11.30;99.90
37642;DHT22;23486;51.956;5.888;2022-10-30T06:08:37;11.30;99.90
37642;DHT22;23486;51.956;5.888;2022-10-30T06:11:03;11.30;99.90
37642;DHT22;23486;51.956;5.888;2022-10-30T06:13:28;11.30;99.90
37642;DHT22;23486;51.956;5.888;2022-10-30T06:15:54;11.20;99.90
37642;DHT22;23486;51.956;5.888;2022-10-30T06:18:21;11.20;99.90
37642;DHT22;23486;51.956;5.888;2022-10-30T06:20:46;11.20;99.90
37642;DHT22;23486;51.956;5.888;2022-10-30T06:23:12;11.20;99.90
37642;DHT22;23486;51.956;5.888;2022-10-30T06:25:37;11.20;99.90
37642;DHT22;23486;51.956;5.888;2022-10-30T06:28:07;11.10;99.90
37642;DHT22;23486;51.956;5.888;2022-10-30T06:30:39;11.00;99.90
37642;DHT22;23486;51.956;5.888;2022-10-30T06:33:05;11.10;99.90
37642;DHT22;23486;51.956;5.888;2022-10-30T06:35:31;11.10;99.90
37642;DHT22;23486;51.956;5.888;2022-10-30T06:37:57;11.10;99.90
37642;DHT22;23486;51.956;5.888;2022-10-30T06:40:25;11.10;99.90
37642;DHT22;23486;51.956;5.888;2022-10-30T06:42:54;11.10;99.90
37642;DHT22;23486;51.956;5.888;2022-10-30T06:45:21;11.10;99.90
37642;DHT22;23486;51.956;5.888;2022-10-30T06:47:47;11.10;99.90
37642;DHT22;23486;51.956;5.888;2022-10-30T06:50:21;11.10;99.90
37642;DHT22;23486;51.956;5.888;2022-10-30T06:52:48;11.10;99.90
37642;DHT22;23486;51.956;5.888;2022-10-30T06:55:14;11.10;99.90
37642;DHT22;23486;51.956;5.888;2022-10-30T06:57:39;11.20;99.90
37642;DHT22;23486;51.956;5.888;2022-10-30T07:00:06;11.20;99.90
37642;DHT22;23486;51.956;5.888;2022-10-30T07:02:32;11.20;99.90
37642;DHT22;23486;51.956;5.888;2022-10-30T07:04:58;11.20;99.90
37642;DHT22;23486;51.956;5.888;2022-10-30T07:07:23;11.20;99.90
37642;DHT22;23486;51.956;5.888;2022-10-30T07:09:49;11.20;99.90
37642;DHT22;23486;51.956;5.888;2022-10-30T07:12:15;11.30;99.90
37642;DHT22;23486;51.956;5.888;2022-10-30T07:14:40;11.30;99.90
37642;DHT22;23486;51.956;5.888;2022-10-30T07:17:07;11.30;99.90
37642;DHT22;23486;51.956;5.888;2022-10-30T07:19:32;11.40;99.90
37642;DHT22;23486;51.956;5.888;2022-10-30T07:21:59;11.40;99.90
37642;DHT22;23486;51.956;5.888;2022-10-30T07:24:25;11.40;99.90
37642;DHT22;23486;51.956;5.888;2022-10-30T07:26:50;11.50;99.90
37642;DHT22;23486;51.956;5.888;2022-10-30T07:29:16;11.50;99.90
37642;DHT22;23486;51.956;5.888;2022-10-30T07:31:41;11.50;99.90
37642;DHT22;23486;51.956;5.888;2022-10-30T07:34:08;11.50;99.90
37642;DHT22;23486;51.956;5.888;2022-10-30T07:36:33;11.50;99.90
37642;DHT22;23486;51.956;5.888;2022-10-30T07:38:59;11.50;99.90
37642;DHT22;23486;51.956;5.888;2022-10-30T07:41:30;11.60;99.90
37642;DHT22;23486;51.956;5.888;2022-10-30T07:43:56;11.60;99.90
37642;DHT22;23486;51.956;5.888;2022-10-30T07:46:21;11.70;99.90
37642;DHT22;23486;51.956;5.888;2022-10-30T07:48:47;11.70;99.90
37642;DHT22;23486;51.956;5.888;2022-10-30T07:51:13;11.80;99.90
37642;DHT22;23486;51.956;5.888;2022-10-30T07:53:39;11.90;99.90
37642;DHT22;23486;51.956;5.888;2022-10-30T07:56:05;12.00;99.90
37642;DHT22;23486;51.956;5.888;2022-10-30T07:58:31;12.00;99.90
37642;DHT22;23486;51.956;5.888;2022-10-30T08:00:56;12.10;99.90
37642;DHT22;23486;51.956;5.888;2022-10-30T08:03:22;12.20;99.90
37642;DHT22;23486;51.956;5.888;2022-10-30T08:05:48;12.10;99.90
37642;DHT22;23486;51.956;5.888;2022-10-30T08:08:13;12.10;99.90
37642;DHT22;23486;51.956;5.888;2022-10-30T08:10:39;12.20;99.90
37642;DHT22;23486;51.956;5.888;2022-10-30T08:13:05;12.20;99.90
37642;DHT22;23486;51.956;5.888;2022-10-30T08:15:30;12.30;99.90
37642;DHT22;23486;51.956;5.888;2022-10-30T08:17:57;12.30;99.90
37642;DHT22;23486;51.956;5.888;2022-10-30T08:20:23;12.30;99.90
37642;DHT22;23486;51.956;5.888;2022-10-30T08:22:54;12.40;99.90
37642;DHT22;23486;51.956;5.888;2022-10-30T08:25:22;12.40;99.90
37642;DHT22;23486;51.956;5.888;2022-10-30T08:30:23;12.50;99.90
37642;DHT22;23486;51.956;5.888;2022-10-30T08:32:48;12.60;99.90
37642;DHT22;23486;51.956;5.888;2022-10-30T08:35:14;12.70;99.90
37642;DHT22;23486;51.956;5.888;2022-10-30T08:37:41;12.80;99.90
37642;DHT22;23486;51.956;5.888;2022-10-30T08:40:07;12.70;99.90
37642;DHT22;23486;51.956;5.888;2022-10-30T08:42:33;12.90;99.90
37642;DHT22;23486;51.956;5.888;2022-10-30T08:44:58;13.00;99.90
37642;DHT22;23486;51.956;5.888;2022-10-30T08:47:24;13.00;99.90
37642;DHT22;23486;51.956;5.888;2022-10-30T08:49:49;13.10;99.90
37642;DHT22;23486;51.956;5.888;2022-10-30T08:52:15;13.20;99.90
37642;DHT22;23486;51.956;5.888;2022-10-30T08:54:40;13.30;99.90
37642;DHT22;23486;51.956;5.888;2022-10-30T08:57:06;13.30;99.90
37642;DHT22;23486;51.956;5.888;2022-10-30T08:59:31;13.40;99.90
37642;DHT22;23486;51.956;5.888;2022-10-30T09:01:57;13.40;99.90
37642;DHT22;23486;51.956;5.888;2022-10-30T09:04:22;13.40;99.90
37642;DHT22;23486;51.956;5.888;2022-10-30T09:06:48;13.40;99.90
37642;DHT22;23486;51.956;5.888;2022-10-30T09:09:13;13.50;99.90
37642;DHT22;23486;51.956;5.888;2022-10-30T09:11:39;13.60;99.90
37642;DHT22;23486;51.956;5.888;2022-10-30T09:14:05;13.60;99.90
37642;DHT22;23486;51.956;5.888;2022-10-30T09:16:30;13.70;99.90
37642;DHT22;23486;51.956;5.888;2022-10-30T09:18:59;13.80;99.90
37642;DHT22;23486;51.956;5.888;2022-10-30T09:21:24;13.80;99.90
37642;DHT22;23486;51.956;5.888;2022-10-30T09:23:50;13.90;99.90
37642;DHT22;23486;51.956;5.888;2022-10-30T09:26:15;14.00;99.90
37642;DHT22;23486;51.956;5.888;2022-10-30T09:28:41;14.00;99.90
37642;DHT22;23486;51.956;5.888;2022-10-30T09:31:06;14.10;99.90
37642;DHT22;23486;51.956;5.888;2022-10-30T09:33:32;14.10;99.90
37642;DHT22;23486;51.956;5.888;2022-10-30T09:35:58;14.20;99.90
37642;DHT22;23486;51.956;5.888;2022-10-30T09:38:23;14.30;99.90
37642;DHT22;23486;51.956;5.888;2022-10-30T09:41:11;14.30;99.90
37642;DHT22;23486;51.956;5.888;2022-10-30T09:49:29;14.60;99.90
37642;DHT22;23486;51.956;5.888;2022-10-30T09:52:05;14.70;99.90
37642;DHT22;23486;51.956;5.888;2022-10-30T09:54:35;14.80;99.90
37642;DHT22;23486;51.956;5.888;2022-10-30T09:57:42;14.90;99.90
37642;DHT22;23486;51.956;5.888;2022-10-30T10:00:10;15.00;99.90
37642;DHT22;23486;51.956;5.888;2022-10-30T10:05:56;15.10;99.90
37642;DHT22;23486;51.956;5.888;2022-10-30T10:08:33;15.30;99.90
37642;DHT22;23486;51.956;5.888;2022-10-30T10:11:09;15.40;99.90
37642;DHT22;23486;51.956;5.888;2022-10-30T10:14:10;15.50;99.90
37642;DHT22;23486;51.956;5.888;2022-10-30T10:16:39;15.50;99.90
37642;DHT22;23486;51.956;5.888;2022-10-30T10:19:20;15.50;99.90
37642;DHT22;23486;51.956;5.888;2022-10-30T10:21:59;15.60;99.90
37642;DHT22;23486;51.956;5.888;2022-10-30T10:24:29;15.60;99.90
37642;DHT22;23486;51.956;5.888;2022-10-30T10:27:09;15.70;99.90
37642;DHT22;23486;51.956;5.888;2022-10-30T10:52:33;16.50;99.90
37642;DHT22;23486;51.956;5.888;2022-10-30T10:55:04;16.50;99.90
37642;DHT22;23486;51.956;5.888;2022-10-30T10:57:37;16.50;99.90
37642;DHT22;23486;51.956;5.888;2022-10-30T11:00:05;16.50;99.90
37642;DHT22;23486;51.956;5.888;2022-10-30T11:02:40;16.50;99.90
37642;DHT22;23486;51.956;5.888;2022-10-30T11:05:23;16.50;99.90
37642;DHT22;23486;51.956;5.888;2022-10-30T11:07:50;16.50;99.90
37642;DHT22;23486;51.956;5.888;2022-10-30T11:10:18;16.60;99.90
37642;DHT22;23486;51.956;5.888;2022-10-30T11:12:44;16.70;99.90
37642;DHT22;23486;51.956;5.888;2022-10-30T11:15:36;16.80;99.90
37642;DHT22;23486;51.956;5.888;2022-10-30T11:18:06;16.80;99.90
37642;DHT22;23486;51.956;5.888;2022-10-30T11:23:02;16.90;99.90
37642;DHT22;23486;51.956;5.888;2022-10-30T11:25:33;16.90;99.90
37642;DHT22;23486;51.956;5.888;2022-10-30T11:28:00;17.10;99.90
37642;DHT22;23486;51.956;5.888;2022-10-30T11:30:28;17.10;99.90
37642;DHT22;23486;51.956;5.888;2022-10-30T11:32:55;17.20;99.90
37642;DHT22;23486;51.956;5.888;2022-10-30T11:35:21;17.30;99.90
37642;DHT22;23486;51.956;5.888;2022-10-30T11:38:12;17.30;99.90
37642;DHT22;23486;51.956;5.888;2022-10-30T11:40:38;17.30;99.90
37642;DHT22;23486;51.956;5.888;2022-10-30T11:43:07;17.40;99.90
37642;DHT22;23486;51.956;5.888;2022-10-30T11:45:39;17.40;99.90
37642;DHT22;23486;51.956;5.888;2022-10-30T11:48:12;17.60;99.90
37642;DHT22;23486;51.956;5.888;2022-10-30T11:50:48;17.60;99.90
37642;DHT22;23486;51.956;5.888;2022-10-30T11:53:30;17.70;99.90
37642;DHT22;23486;51.956;5.888;2022-10-30T11:56:00;17.80;99.90
37642;DHT22;23486;51.956;5.888;2022-10-30T11:58:37;17.90;99.90
37642;DHT22;23486;51.956;5.888;2022-10-30T12:03:54;18.00;99.90
37642;DHT22;23486;51.956;5.888;2022-10-30T12:06:27;18.00;99.90
37642;DHT22;23486;51.956;5.888;2022-10-30T12:11:31;18.10;99.90
37642;DHT22;23486;51.956;5.888;2022-10-30T12:13:57;18.10;99.90
37642;DHT22;23486;51.956;5.888;2022-10-30T12:16:24;18.20;99.90
37642;DHT22;23486;51.956;5.888;2022-10-30T12:21:19;18.30;99.90
37642;DHT22;23486;51.956;5.888;2022-10-30T12:23:57;18.40;99.90
37642;DHT22;23486;51.956;5.888;2022-10-30T12:26:27;18.50;99.90
37642;DHT22;23486;51.956;5.888;2022-10-30T12:28:59;18.50;99.90
37642;DHT22;23486;51.956;5.888;2022-10-30T12:34:38;18.70;99.90
37642;DHT22;23486;51.956;5.888;2022-10-30T12:37:15;18.80;99.90
37642;DHT22;23486;51.956;5.888;2022-10-30T12:40:07;18.80;99.90
37642;DHT22;23486;51.956;5.888;2022-10-30T12:42:44;18.80;99.90
37642;DHT22;23486;51.956;5.888;2022-10-30T12:45:25;18.90;99.90
37642;DHT22;23486;51.956;5.888;2022-10-30T12:48:04;18.90;99.90
37642;DHT22;23486;51.956;5.888;2022-10-30T12:50:39;18.90;99.90
37642;DHT22;23486;51.956;5.888;2022-10-30T12:53:37;18.90;99.90
37642;DHT22;23486;51.956;5.888;2022-10-30T12:56:09;18.90;99.90
37642;DHT22;23486;51.956;5.888;2022-10-30T12:58:51;18.90;99.90
37642;DHT22;23486;51.956;5.888;2022-10-30T13:01:34;18.90;99.90
37642;DHT22;23486;51.956;5.888;2022-10-30T13:04:08;18.80;99.90
37642;DHT22;23486;51.956;5.888;2022-10-30T13:07:32;18.90;99.90
37642;DHT22;23486;51.956;5.888;2022-10-30T13:12:37;18.90;99.90
37642;DHT22;23486;51.956;5.888;2022-10-30T13:15:00;18.90;99.90
37642;DHT22;23486;51.956;5.888;2022-10-30T13:17:28;18.90;99.90
37642;DHT22;23486;51.956;5.888;2022-10-30T13:19:54;18.90;99.90
37642;DHT22;23486;51.956;5.888;2022-10-30T13:27:59;18.90;99.90
37642;DHT22;23486;51.956;5.888;2022-10-30T13:30:39;19.00;99.90
37642;DHT22;23486;51.956;5.888;2022-10-30T13:33:19;19.10;99.90
37642;DHT22;23486;51.956;5.888;2022-10-30T13:38:49;19.50;99.90
37642;DHT22;23486;51.956;5.888;2022-10-30T13:41:38;19.50;99.90
37642;DHT22;23486;51.956;5.888;2022-10-30T13:49:57;19.50;99.90
37642;DHT22;23486;51.956;5.888;2022-10-30T13:52:28;19.50;99.90
37642;DHT22;23486;51.956;5.888;2022-10-30T13:55:32;19.50;99.90
37642;DHT22;23486;51.956;5.888;2022-10-30T14:03:36;19.30;99.90
37642;DHT22;23486;51.956;5.888;2022-10-30T14:11:18;19.00;99.90
37642;DHT22;23486;51.956;5.888;2022-10-30T14:13:45;18.90;99.90
37642;DHT22;23486;51.956;5.888;2022-10-30T14:16:31;18.80;99.90
37642;DHT22;23486;51.956;5.888;2022-10-30T14:19:15;18.80;99.90
37642;DHT22;23486;51.956;5.888;2022-10-30T14:21:59;18.70;99.90
37642;DHT22;23486;51.956;5.888;2022-10-30T14:24:30;18.60;99.90
37642;DHT22;23486;51.956;5.888;2022-10-30T14:39:50;18.30;99.90
37642;DHT22;23486;51.956;5.888;2022-10-30T14:42:21;18.30;99.90
37642;DHT22;23486;51.956;5.888;2022-10-30T14:45:08;18.30;99.90
37642;DHT22;23486;51.956;5.888;2022-10-30T14:48:00;18.30;99.90
37642;DHT22;23486;51.956;5.888;2022-10-30T14:53:39;18.30;99.90
37642;DHT22;23486;51.956;5.888;2022-10-30T14:56:26;18.40;99.90
37642;DHT22;23486;51.956;5.888;2022-10-30T15:10:24;18.40;99.90
37642;DHT22;23486;51.956;5.888;2022-10-30T15:15:30;18.50;99.90
37642;DHT22;23486;51.956;5.888;2022-10-30T15:18:00;18.40;99.90
37642;DHT22;23486;51.956;5.888;2022-10-30T15:20:31;18.40;99.90
37642;DHT22;23486;51.956;5.888;2022-10-30T15:23:06;18.30;99.90
37642;DHT22;23486;51.956;5.888;2022-10-30T15:25:54;18.30;99.90
37642;DHT22;23486;51.956;5.888;2022-10-30T15:28:31;18.20;99.90
37642;DHT22;23486;51.956;5.888;2022-10-30T15:31:07;18.20;99.90
37642;DHT22;23486;51.956;5.888;2022-10-30T15:33:44;18.10;99.90
37642;DHT22;23486;51.956;5.888;2022-10-30T15:39:06;17.90;99.90
37642;DHT22;23486;51.956;5.888;2022-10-30T15:44:11;17.70;99.90
37642;DHT22;23486;51.956;5.888;2022-10-30T15:46:38;17.70;99.90
37642;DHT22;23486;51.956;5.888;2022-10-30T15:49:06;17.60;99.90
37642;DHT22;23486;51.956;5.888;2022-10-30T15:51:33;17.60;99.90
37642;DHT22;23486;51.956;5.888;2022-10-30T15:54:00;17.50;99.90
37642;DHT22;23486;51.956;5.888;2022-10-30T15:56:30;17.40;99.90
37642;DHT22;23486;51.956;5.888;2022-10-30T15:59:02;17.30;99.90
37642;DHT22;23486;51.956;5.888;2022-10-30T16:01:34;17.30;99.90
37642;DHT22;23486;51.956;5.888;2022-10-30T16:04:23;17.20;99.90
37642;DHT22;23486;51.956;5.888;2022-10-30T16:06:52;17.20;99.90
37642;DHT22;23486;51.956;5.888;2022-10-30T16:09:19;17.10;99.90
37642;DHT22;23486;51.956;5.888;2022-10-30T16:11:46;17.10;99.90
37642;DHT22;23486;51.956;5.888;2022-10-30T16:14:20;17.00;99.90
37642;DHT22;23486;51.956;5.888;2022-10-30T16:16:47;17.00;99.90
37642;DHT22;23486;51.956;5.888;2022-10-30T16:19:21;16.90;99.90
37642;DHT22;23486;51.956;5.888;2022-10-30T16:21:47;16.90;99.90
37642;DHT22;23486;51.956;5.888;2022-10-30T16:24:15;16.80;99.90
37642;DHT22;23486;51.956;5.888;2022-10-30T16:26:42;16.80;99.90
37642;DHT22;23486;51.956;5.888;2022-10-30T16:31:43;16.90;99.90
37642;DHT22;23486;51.956;5.888;2022-10-30T16:34:12;16.90;99.90
37642;DHT22;23486;51.956;5.888;2022-10-30T16:36:40;17.00;99.90
37642;DHT22;23486;51.956;5.888;2022-10-30T16:39:08;17.00;99.90
37642;DHT22;23486;51.956;5.888;2022-10-30T16:41:38;17.10;99.90
37642;DHT22;23486;51.956;5.888;2022-10-30T16:44:28;17.20;99.90
37642;DHT22;23486;51.956;5.888;2022-10-30T16:46:57;17.20;99.90
37642;DHT22;23486;51.956;5.888;2022-10-30T16:49:29;17.20;99.90
37642;DHT22;23486;51.956;5.888;2022-10-30T16:52:05;17.30;99.90
37642;DHT22;23486;51.956;5.888;2022-10-30T16:54:35;17.30;99.90
37642;DHT22;23486;51.956;5.888;2022-10-30T16:57:12;17.20;99.90
37642;DHT22;23486;51.956;5.888;2022-10-30T16:59:46;17.20;99.90
37642;DHT22;23486;51.956;5.888;2022-10-30T17:02:22;17.20;99.90
37642;DHT22;23486;51.956;5.888;2022-10-30T17:04:52;17.20;99.90
37642;DHT22;23486;51.956;5.888;2022-10-30T17:07:21;17.20;99.90
37642;DHT22;23486;51.956;5.888;2022-10-30T17:09:49;17.20;99.90
37642;DHT22;23486;51.956;5.888;2022-10-30T17:12:20;17.10;99.90
37642;DHT22;23486;51.956;5.888;2022-10-30T17:14:52;17.10;99.90
37642;DHT22;23486;51.956;5.888;2022-10-30T17:22:26;17.00;99.90
37642;DHT22;23486;51.956;5.888;2022-10-30T17:24:52;17.00;99.90
37642;DHT22;23486;51.956;5.888;2022-10-30T17:27:36;17.00;99.90
37642;DHT22;23486;51.956;5.888;2022-10-30T17:30:32;16.90;99.90
37642;DHT22;23486;51.956;5.888;2022-10-30T17:33:20;16.90;99.90
37642;DHT22;23486;51.956;5.888;2022-10-30T17:35:47;16.90;99.90
37642;DHT22;23486;51.956;5.888;2022-10-30T17:38:12;16.80;99.90
37642;DHT22;23486;51.956;5.888;2022-10-30T17:40:38;16.80;99.90
37642;DHT22;23486;51.956;5.888;2022-10-30T17:43:03;16.80;99.90
37642;DHT22;23486;51.956;5.888;2022-10-30T17:45:29;16.70;99.90
37642;DHT22;23486;51.956;5.888;2022-10-30T17:47:54;16.70;99.90
37642;DHT22;23486;51.956;5.888;2022-10-30T17:50:20;16.70;99.90
37642;DHT22;23486;51.956;5.888;2022-10-30T17:52:46;16.60;99.90
37642;DHT22;23486;51.956;5.888;2022-10-30T17:55:23;16.60;99.90
37642;DHT22;23486;51.956;5.888;2022-10-30T17:57:49;16.60;99.90
37642;DHT22;23486;51.956;5.888;2022-10-30T18:00:16;16.60;99.90
37642;DHT22;23486;51.956;5.888;2022-10-30T18:02:41;16.50;99.90
37642;DHT22;23486;51.956;5.888;2022-10-30T18:05:16;16.50;99.90
37642;DHT22;23486;51.956;5.888;2022-10-30T18:07:42;16.50;99.90
37642;DHT22;23486;51.956;5.888;2022-10-30T18:10:08;16.40;99.90
37642;DHT22;23486;51.956;5.888;2022-10-30T18:12:34;16.40;99.90